Time;durP1;ratioP1;P1;durP2;ratioP2;P2;SDS_P1;SDS_P2;PMS_P1;PMS_P2;Temp;Humidity;BMP_temperature;BMP_pressure;BME280_temperature;BME280_humidity;BME280_pressure;Samples;Min_cycle;Max_cycle;Signal;HPM_P1;HPM_P2
2022/05/21 00:00:55;;;;;;;3.40;3.10;;;19.10;99.90;;;;;;5018111;28;20490;-44
2022/05/21 00:03:22;;;;;;;3.27;2.97;;;19.00;99.90;;;;;;5018103;28;20600;-49
2022/05/21 00:05:49;;;;;;;3.13;2.83;;;18.90;99.90;;;;;;5017972;28;20855;-44
2022/05/21 00:08:16;;;;;;;3.10;2.90;;;18.90;99.90;;;;;;5017881;28;20438;-48
2022/05/21 00:10:44;;;;;;;3.80;3.50;;;18.80;99.90;;;;;;5017716;28;20480;-45
2022/05/21 00:13:12;;;;;;;2.73;2.53;;;18.70;99.90;;;;;;5016522;28;20609;-46
2022/05/21 00:15:39;;;;;;;3.17;2.77;;;18.80;99.90;;;;;;5018158;28;20829;-44
2022/05/21 00:18:07;;;;;;;3.30;3.10;;;18.80;99.90;;;;;;5017733;28;20692;-47
2022/05/21 00:20:50;;;;;;;4.50;3.23;;;18.80;99.90;;;;;;5016756;28;20592;-48
2022/05/21 00:23:29;;;;;;;4.70;3.83;;;18.80;99.90;;;;;;5017402;28;20497;-49
2022/05/21 00:26:06;;;;;;;8.03;3.10;;;18.60;99.90;;;;;;5017223;28;20443;-45
2022/05/21 00:28:35;;;;;;;3.80;3.30;;;18.60;99.90;;;;;;5017832;28;20488;-46
2022/05/21 00:31:04;;;;;;;3.90;3.50;;;18.70;99.90;;;;;;5016773;28;20752;-44
2022/05/21 00:33:32;;;;;;;4.80;3.83;;;18.60;99.90;;;;;;5017633;28;20708;-46
2022/05/21 00:35:59;;;;;;;4.23;3.93;;;18.60;99.90;;;;;;5016981;28;20409;-45
2022/05/21 00:38:27;;;;;;;3.73;3.43;;;18.50;99.90;;;;;;5017737;28;20726;-45
2022/05/21 00:40:55;;;;;;;4.73;3.50;;;18.50;99.90;;;;;;5016766;28;20457;-46
2022/05/21 00:43:41;;;;;;;3.30;3.00;;;18.50;99.90;;;;;;5017109;28;20412;-45
2022/05/21 00:46:16;;;;;;;4.17;3.77;;;18.40;99.90;;;;;;5013894;28;20450;-45
2022/05/21 00:48:47;;;;;;;3.97;3.63;;;18.40;99.90;;;;;;4997643;28;20803;-47
2022/05/21 00:51:21;;;;;;;3.83;3.53;;;18.40;99.90;;;;;;5000407;28;20752;-47
2022/05/21 00:53:52;;;;;;;4.00;3.70;;;18.40;99.90;;;;;;5000353;28;20576;-45
2022/05/21 00:56:21;;;;;;;5.90;4.70;;;18.50;99.90;;;;;;4996623;28;20781;-47
2022/05/21 01:01:44;;;;;;;4.37;2.70;;;18.60;99.90;;;;;;4996922;28;20663;-48
2022/05/21 01:04:12;;;;;;;2.60;2.40;;;18.60;99.90;;;;;;4997409;28;20894;-46
2022/05/21 01:06:39;;;;;;;2.80;2.60;;;18.60;99.90;;;;;;4996980;28;20804;-46
2022/05/21 01:09:07;;;;;;;3.03;2.83;;;18.60;99.90;;;;;;4996684;28;20800;-46
2022/05/21 01:11:36;;;;;;;2.93;2.73;;;18.70;99.90;;;;;;4996866;28;20801;-46
2022/05/21 01:14:05;;;;;;;3.30;2.90;;;18.80;99.90;;;;;;4996527;28;20477;-47
2022/05/21 01:16:33;;;;;;;3.10;2.90;;;18.90;99.90;;;;;;4997225;28;20413;-46
2022/05/21 01:19:08;;;;;;;3.60;3.20;;;19.10;99.90;;;;;;4996743;28;20434;-45
2022/05/21 01:21:37;;;;;;;3.50;3.20;;;19.20;99.90;;;;;;4997074;28;20639;-46
2022/05/21 01:24:06;;;;;;;6.10;3.83;;;19.20;99.90;;;;;;4996420;28;20437;-47
2022/05/21 01:26:35;;;;;;;3.03;2.67;;;19.40;99.90;;;;;;4996948;28;20447;-48
2022/05/21 01:29:11;;;;;;;3.23;3.03;;;19.50;99.90;;;;;;4996659;28;20444;-46
2022/05/21 01:31:39;;;;;;;3.13;2.83;;;19.60;99.90;;;;;;4996982;28;20649;-46
2022/05/21 01:34:07;;;;;;;3.27;2.97;;;19.50;99.90;;;;;;4996140;28;20514;-47
2022/05/21 01:36:35;;;;;;;3.33;2.93;;;19.30;99.90;;;;;;4996459;28;20443;-45
2022/05/21 01:39:02;;;;;;;2.77;2.57;;;19.40;99.90;;;;;;4996697;28;20413;-44
2022/05/21 01:41:29;;;;;;;3.17;2.80;;;19.20;99.90;;;;;;4996828;28;20448;-45
2022/05/21 01:46:43;;;;;;;2.70;2.50;;;19.10;99.90;;;;;;4997525;28;20414;-45
2022/05/21 01:49:10;;;;;;;2.43;2.30;;;19.10;99.90;;;;;;4996608;28;20442;-44
2022/05/21 01:51:37;;;;;;;7.67;2.80;;;19.00;99.90;;;;;;4996111;28;20461;-48
2022/05/21 01:54:05;;;;;;;2.40;2.20;;;19.10;99.90;;;;;;4995855;28;20416;-46
2022/05/21 01:56:32;;;;;;;4.50;3.30;;;19.00;99.90;;;;;;4996733;28;20465;-48
2022/05/21 01:59:00;;;;;;;3.47;3.17;;;19.00;99.90;;;;;;4996124;28;20448;-47
2022/05/21 02:01:27;;;;;;;2.97;2.67;;;18.90;99.90;;;;;;4995765;28;20438;-49
2022/05/21 02:03:55;;;;;;;2.60;2.40;;;18.90;99.90;;;;;;4996114;28;20483;-45
2022/05/21 02:06:22;;;;;;;3.27;2.77;;;18.80;99.90;;;;;;4995867;28;20424;-47
2022/05/21 02:08:49;;;;;;;2.33;2.07;;;18.70;99.90;;;;;;4995897;28;20510;-47
2022/05/21 02:11:17;;;;;;;3.37;3.07;;;18.70;99.90;;;;;;4995572;28;20459;-46
2022/05/21 02:13:44;;;;;;;2.43;2.23;;;18.70;99.90;;;;;;4995573;28;20419;-48
2022/05/21 02:16:12;;;;;;;2.20;2.07;;;18.70;99.90;;;;;;4984492;28;20793;-48
2022/05/21 02:18:39;;;;;;;2.30;2.10;;;18.70;99.90;;;;;;4991087;28;20419;-46
2022/05/21 02:21:07;;;;;;;2.87;2.67;;;18.80;99.90;;;;;;4976072;28;20532;-46
2022/05/21 02:23:35;;;;;;;2.47;2.33;;;18.80;99.90;;;;;;4976409;28;20761;-46
2022/05/21 02:26:05;;;;;;;3.00;2.80;;;18.70;99.90;;;;;;4975899;28;20448;-44
2022/05/21 02:28:32;;;;;;;3.73;2.43;;;18.80;99.90;;;;;;4976514;28;20446;-44
2022/05/21 02:31:03;;;;;;;2.97;2.43;;;18.90;99.90;;;;;;4976284;28;20507;-47
2022/05/21 02:33:31;;;;;;;2.97;2.77;;;18.90;99.90;;;;;;4976428;28;20428;-46
2022/05/21 02:35:59;;;;;;;3.13;2.93;;;19.00;99.90;;;;;;4975692;28;20617;-45
2022/05/21 02:41:15;;;;;;;4.70;2.77;;;18.90;99.90;;;;;;4977106;28;20438;-45
2022/05/21 02:43:43;;;;;;;2.80;2.50;;;18.90;99.90;;;;;;4976468;28;20762;-44
2022/05/21 02:46:11;;;;;;;2.70;2.50;;;18.90;99.90;;;;;;4976204;28;20455;-46
2022/05/21 02:48:39;;;;;;;2.80;2.43;;;18.90;99.90;;;;;;4976225;28;20418;-45
2022/05/21 02:51:09;;;;;;;4.37;3.03;;;18.90;99.90;;;;;;4975945;28;20494;-44
2022/05/21 02:53:37;;;;;;;3.10;2.90;;;18.90;99.90;;;;;;4976189;28;20477;-46
2022/05/21 02:56:11;;;;;;;3.53;2.83;;;18.90;99.90;;;;;;4959383;28;20418;-46
2022/05/21 02:58:38;;;;;;;4.77;4.37;;;18.80;99.90;;;;;;4976434;28;20494;-45
2022/05/21 03:01:05;;;;;;;7.70;3.07;;;18.70;99.90;;;;;;4975873;28;20642;-46
2022/05/21 03:03:33;;;;;;;2.93;2.73;;;18.60;99.90;;;;;;4976056;28;20451;-46
2022/05/21 03:06:00;;;;;;;3.10;2.90;;;18.50;99.90;;;;;;4975745;28;20418;-44
2022/05/21 03:11:13;;;;;;;4.10;3.70;;;18.30;99.90;;;;;;4975632;28;20461;-46
2022/05/21 03:13:40;;;;;;;3.13;2.93;;;18.30;99.90;;;;;;4975684;28;20811;-44
2022/05/21 03:16:08;;;;;;;3.23;2.93;;;18.20;99.90;;;;;;4980771;28;20428;-46
2022/05/21 03:18:36;;;;;;;3.50;3.20;;;18.20;99.90;;;;;;4981532;28;20483;-44
2022/05/21 03:21:03;;;;;;;4.40;4.00;;;18.10;99.90;;;;;;4981007;28;20740;-48
2022/05/21 03:23:31;;;;;;;3.80;3.00;;;18.00;99.90;;;;;;4976213;28;20430;-45
2022/05/21 03:25:58;;;;;;;3.20;2.87;;;17.90;99.90;;;;;;4974932;28;20485;-43
2022/05/21 03:28:25;;;;;;;2.90;2.70;;;17.90;99.90;;;;;;4976289;28;20433;-45
2022/05/21 03:30:52;;;;;;;3.20;3.00;;;17.90;99.90;;;;;;4975500;28;20502;-43
2022/05/21 03:33:20;;;;;;;2.23;2.13;;;17.90;99.90;;;;;;4975514;28;20413;-46
2022/05/21 03:35:47;;;;;;;2.00;1.90;;;17.90;99.90;;;;;;4975706;28;20421;-47
2022/05/21 03:38:15;;;;;;;2.20;2.10;;;17.90;99.90;;;;;;4975884;28;20490;-45
2022/05/21 03:40:43;;;;;;;2.70;2.50;;;18.00;99.90;;;;;;4975446;28;20797;-45
2022/05/21 03:43:10;;;;;;;2.30;1.77;;;18.00;99.90;;;;;;4975637;28;20453;-44
2022/05/21 03:45:37;;;;;;;5.03;1.57;;;18.00;99.90;;;;;;4976718;28;20469;-44
2022/05/21 03:48:06;;;;;;;3.00;1.27;;;18.00;99.90;;;;;;4978516;28;20491;-44
2022/05/21 03:50:33;;;;;;;2.30;1.53;;;18.00;99.90;;;;;;4979537;28;20821;-46
2022/05/21 03:53:01;;;;;;;1.10;1.00;;;17.90;99.90;;;;;;4978928;28;20477;-45
2022/05/21 03:55:30;;;;;;;3.60;1.20;;;18.00;99.90;;;;;;4979219;28;20418;-42
2022/05/21 03:57:58;;;;;;;1.37;1.27;;;17.90;99.90;;;;;;4978627;28;20489;-47
2022/05/21 04:00:26;;;;;;;1.40;1.30;;;17.70;99.90;;;;;;4978604;28;20421;-46
2022/05/21 04:02:53;;;;;;;0.73;0.73;;;17.70;99.90;;;;;;4979218;28;20418;-44
2022/05/21 04:05:20;;;;;;;1.53;1.43;;;17.60;99.90;;;;;;4979344;28;20770;-46
2022/05/21 04:07:48;;;;;;;1.20;1.20;;;17.60;99.90;;;;;;4979121;28;20427;-47
2022/05/21 04:10:19;;;;;;;1.40;1.30;;;17.50;99.90;;;;;;4978990;28;20516;-46
2022/05/21 04:12:46;;;;;;;1.60;1.50;;;17.50;99.90;;;;;;4981048;28;20457;-46
2022/05/21 04:15:14;;;;;;;1.20;1.20;;;17.50;99.90;;;;;;4985824;28;20412;-46
2022/05/21 04:17:45;;;;;;;1.73;1.63;;;17.50;99.90;;;;;;4979967;28;20535;-44
2022/05/21 04:20:15;;;;;;;1.20;1.20;;;17.50;99.90;;;;;;4979236;28;20778;-44
2022/05/21 04:22:43;;;;;;;1.90;1.63;;;17.50;99.90;;;;;;4979011;28;20444;-46
2022/05/21 04:25:11;;;;;;;2.63;1.40;;;17.60;99.90;;;;;;4979116;28;20432;-43
2022/05/21 04:27:39;;;;;;;6.13;1.47;;;17.60;99.90;;;;;;4979255;28;20453;-44
2022/05/21 04:30:17;;;;;;;1.27;1.17;;;17.60;99.90;;;;;;4978781;28;20789;-45
2022/05/21 04:32:45;;;;;;;1.20;1.10;;;17.60;99.90;;;;;;4978859;28;20959;-44
2022/05/21 04:35:14;;;;;;;2.43;2.23;;;17.50;99.90;;;;;;4978476;28;20417;-46
2022/05/21 04:37:41;;;;;;;1.30;1.13;;;17.50;99.90;;;;;;4978195;28;20770;-45
2022/05/21 04:40:13;;;;;;;2.97;1.33;;;17.50;99.90;;;;;;4978170;28;20633;-49
2022/05/21 04:42:40;;;;;;;1.20;1.10;;;17.50;99.90;;;;;;4978255;28;20464;-46
2022/05/21 04:45:09;;;;;;;1.10;1.10;;;17.50;99.90;;;;;;4978191;28;20665;-47
2022/05/21 04:47:36;;;;;;;2.10;1.37;;;17.50;99.90;;;;;;4977884;28;20535;-44
2022/05/21 04:50:07;;;;;;;0.83;0.83;;;17.60;99.90;;;;;;4977959;28;20410;-46
2022/05/21 04:52:35;;;;;;;1.43;1.33;;;17.50;99.90;;;;;;4978335;28;20472;-48
2022/05/21 04:55:06;;;;;;;1.80;1.70;;;17.60;99.90;;;;;;4977993;28;20436;-45
2022/05/21 04:57:34;;;;;;;1.73;1.63;;;17.70;99.90;;;;;;4978434;28;20494;-45
2022/05/21 05:00:03;;;;;;;1.60;1.20;;;17.80;99.90;;;;;;4977228;28;20747;-48
2022/05/21 05:02:34;;;;;;;1.30;1.20;;;17.70;99.90;;;;;;4977761;28;20466;-46
2022/05/21 05:05:05;;;;;;;1.43;0.90;;;17.60;99.90;;;;;;4977424;28;20761;-45
2022/05/21 05:07:34;;;;;;;0.93;0.93;;;17.60;99.90;;;;;;4978597;28;20429;-46
2022/05/21 05:10:02;;;;;;;0.90;0.90;;;17.60;99.90;;;;;;4977357;28;20442;-44
2022/05/21 05:12:29;;;;;;;0.97;0.97;;;17.70;99.90;;;;;;4977642;28;20793;-47
2022/05/21 05:14:57;;;;;;;1.50;0.87;;;17.60;99.90;;;;;;4976932;28;20501;-47
2022/05/21 05:17:25;;;;;;;1.30;1.20;;;17.70;99.90;;;;;;4960674;28;20454;-43
2022/05/21 05:19:56;;;;;;;1.73;0.80;;;17.70;99.90;;;;;;4976794;28;20417;-44
2022/05/21 05:22:23;;;;;;;2.70;1.10;;;17.70;99.90;;;;;;4977435;28;20437;-44
2022/05/21 05:24:51;;;;;;;1.33;1.10;;;17.80;99.90;;;;;;4977345;28;20419;-46
2022/05/21 05:27:18;;;;;;;1.00;0.80;;;17.80;99.90;;;;;;4977301;28;20422;-45
2022/05/21 05:29:45;;;;;;;2.10;1.07;;;17.80;99.90;;;;;;4976781;28;20442;-44
2022/05/21 05:32:13;;;;;;;1.93;1.00;;;17.90;99.90;;;;;;4976712;28;20542;-46
2022/05/21 05:34:40;;;;;;;2.20;0.80;;;17.90;99.90;;;;;;4977138;28;20625;-47
2022/05/21 05:37:07;;;;;;;1.23;0.93;;;18.00;99.90;;;;;;4976912;28;20425;-46
2022/05/21 05:39:34;;;;;;;2.20;0.90;;;18.00;99.90;;;;;;4977521;28;20444;-46
2022/05/21 05:42:04;;;;;;;1.93;0.90;;;18.10;99.90;;;;;;4976552;28;20434;-43
2022/05/21 05:44:32;;;;;;;1.73;1.10;;;18.10;99.90;;;;;;4977222;28;20692;-47
2022/05/21 05:46:59;;;;;;;0.73;0.73;;;18.10;99.90;;;;;;4976969;28;20440;-43
2022/05/21 05:49:26;;;;;;;1.17;1.07;;;18.20;99.90;;;;;;4977252;28;20436;-45
2022/05/21 05:51:54;;;;;;;0.87;0.87;;;18.30;99.90;;;;;;4976474;28;20833;-44
2022/05/21 05:54:21;;;;;;;1.17;1.10;;;18.40;99.90;;;;;;4976900;28;20570;-46
2022/05/21 05:56:48;;;;;;;1.37;0.70;;;18.50;99.90;;;;;;4976510;28;20425;-46
2022/05/21 05:59:58;;;;;;;1.30;0.93;;;18.50;99.90;;;;;;4976749;28;20439;-45
2022/05/21 06:04:52;;;;;;;1.23;1.13;;;18.60;99.90;;;;;;4976339;28;20690;-44
2022/05/21 06:07:19;;;;;;;1.00;0.90;;;18.60;99.90;;;;;;4976738;28;20594;-49
2022/05/21 06:09:46;;;;;;;1.30;0.90;;;18.70;99.90;;;;;;4976595;28;20633;-46
2022/05/21 06:12:14;;;;;;;5.03;1.10;;;18.90;99.90;;;;;;4976085;28;20470;-44
2022/05/21 06:14:42;;;;;;;1.63;0.83;;;19.30;99.90;;;;;;4976474;28;20417;-48
2022/05/21 06:17:09;;;;;;;3.17;1.10;;;19.60;99.90;;;;;;4976384;28;20416;-45
2022/05/21 06:19:37;;;;;;;0.77;0.77;;;19.80;99.90;;;;;;4976320;28;20755;-46
2022/05/21 06:22:04;;;;;;;1.57;1.47;;;20.30;99.90;;;;;;4976142;28;20461;-46
2022/05/21 06:24:36;;;;;;;0.80;0.80;;;20.50;99.90;;;;;;4976962;28;20474;-45
2022/05/21 06:27:06;;;;;;;1.40;0.97;;;20.70;99.90;;;;;;4977167;28;20443;-45
2022/05/21 06:29:37;;;;;;;0.90;0.90;;;21.10;99.90;;;;;;4976248;28;20425;-47
2022/05/21 06:32:06;;;;;;;3.13;1.03;;;21.40;99.90;;;;;;4976047;28;20496;-48
2022/05/21 06:34:35;;;;;;;1.80;0.80;;;21.20;99.90;;;;;;4976328;28;20478;-45
2022/05/21 06:37:04;;;;;;;1.27;1.17;;;20.40;99.90;;;;;;4976190;28;20475;-47
2022/05/21 06:39:33;;;;;;;7.30;1.60;;;20.70;99.90;;;;;;4976370;28;20444;-45
2022/05/21 06:42:00;;;;;;;1.23;1.13;;;21.00;99.90;;;;;;4975736;28;20469;-46
2022/05/21 06:44:27;;;;;;;3.03;1.00;;;21.50;99.90;;;;;;4976164;28;20448;-44
2022/05/21 06:46:56;;;;;;;2.43;1.47;;;21.50;99.90;;;;;;4976373;28;20447;-44
2022/05/21 06:49:26;;;;;;;2.63;1.00;;;22.10;99.90;;;;;;4976336;28;20843;-46
2022/05/21 06:51:55;;;;;;;1.30;1.00;;;22.80;99.90;;;;;;4975951;28;20491;-46
2022/05/21 06:54:24;;;;;;;1.10;1.00;;;22.30;99.90;;;;;;4975820;28;20446;-45
2022/05/21 06:56:52;;;;;;;2.47;1.27;;;22.20;99.90;;;;;;4975861;28;20421;-46
2022/05/21 06:59:19;;;;;;;1.50;1.37;;;23.10;99.90;;;;;;4976014;28;20575;-46
2022/05/21 07:01:47;;;;;;;1.27;1.17;;;23.60;99.90;;;;;;4976263;28;20435;-48
2022/05/21 07:04:15;;;;;;;1.20;1.03;;;23.60;99.90;;;;;;5000951;28;20472;-47
2022/05/21 07:09:33;;;;;;;1.10;1.00;;;24.80;98.10;;;;;;5002861;28;20454;-47
2022/05/21 07:12:01;;;;;;;2.40;0.97;;;25.90;95.10;;;;;;5010877;28;20490;-45
2022/05/21 07:14:28;;;;;;;6.10;1.23;;;26.40;92.40;;;;;;5014897;28;20454;-47
2022/05/21 07:16:57;;;;;;;3.57;1.40;;;26.20;92.00;;;;;;5014504;28;20477;-45
2022/05/21 07:19:24;;;;;;;3.50;1.20;;;26.00;92.90;;;;;;5014235;28;20676;-44
2022/05/21 07:21:51;;;;;;;1.90;1.13;;;24.70;95.00;;;;;;5015592;28;20473;-48
2022/05/21 07:24:18;;;;;;;1.23;1.13;;;24.00;95.20;;;;;;5018843;28;20438;-47
2022/05/21 07:26:46;;;;;;;3.70;1.33;;;24.50;94.10;;;;;;5018927;28;20449;-49
2022/05/21 07:29:13;;;;;;;1.30;1.03;;;25.00;93.60;;;;;;5023109;28;20442;-46
2022/05/21 07:31:41;;;;;;;2.30;1.20;;;26.10;90.90;;;;;;5022315;28;20481;-48
2022/05/21 07:34:09;;;;;;;1.10;0.90;;;27.40;87.60;;;;;;5007645;28;20752;-45
2022/05/21 07:36:37;;;;;;;0.97;0.97;;;28.20;83.00;;;;;;4989675;28;20452;-46
2022/05/21 07:39:04;;;;;;;1.90;1.20;;;27.10;85.30;;;;;;4983939;28;20611;-45
2022/05/21 07:41:31;;;;;;;1.10;1.00;;;25.80;88.40;;;;;;4983941;28;20464;-44
2022/05/21 07:43:58;;;;;;;1.20;1.10;;;24.40;91.40;;;;;;4983148;28;20440;-47
2022/05/21 07:46:26;;;;;;;3.20;1.33;;;23.40;95.10;;;;;;4981398;28;20444;-50
2022/05/21 07:48:53;;;;;;;1.17;1.10;;;24.60;95.00;;;;;;4980083;28;20444;-47
2022/05/21 07:51:20;;;;;;;2.17;1.10;;;26.20;91.10;;;;;;4980374;28;20464;-49
2022/05/21 07:53:50;;;;;;;1.57;1.00;;;27.10;86.50;;;;;;4982617;28;20436;-48
2022/05/21 07:56:18;;;;;;;2.27;1.40;;;27.00;85.60;;;;;;4988371;28;20500;-47
2022/05/21 07:58:46;;;;;;;1.97;1.80;;;25.70;88.30;;;;;;5013473;28;20522;-51
2022/05/21 08:01:13;;;;;;;1.30;1.20;;;25.70;89.00;;;;;;5008190;28;20470;-48
2022/05/21 08:03:45;;;;;;;1.33;1.23;;;24.90;89.80;;;;;;5000452;28;20439;-48
2022/05/21 08:06:12;;;;;;;1.43;1.20;;;25.40;90.10;;;;;;4999919;28;20439;-46
2022/05/21 08:08:40;;;;;;;2.40;1.00;;;26.30;84.80;;;;;;4999402;28;20741;-47
2022/05/21 08:11:07;;;;;;;1.20;1.10;;;25.00;86.10;;;;;;4998738;28;20550;-47
2022/05/21 08:13:35;;;;;;;6.73;1.57;;;24.10;88.60;;;;;;5002268;28;20439;-44
2022/05/21 08:16:03;;;;;;;3.63;0.90;;;24.50;87.30;;;;;;5000707;28;20439;-46
2022/05/21 08:18:31;;;;;;;1.53;0.93;;;25.10;87.10;;;;;;5002300;28;20499;-47
2022/05/21 08:20:58;;;;;;;1.47;1.10;;;25.40;86.00;;;;;;4999884;28;20573;-45
2022/05/21 08:28:57;;;;;;;0.80;0.80;;;22.60;94.70;;;;;;4997928;28;20791;-44
2022/05/21 08:31:27;;;;;;;0.80;0.80;;;24.10;91.60;;;;;;4997961;28;20497;-45
2022/05/21 08:33:55;;;;;;;1.07;0.90;;;25.70;87.60;;;;;;4996325;28;20449;-45
2022/05/21 08:36:22;;;;;;;1.23;1.03;;;24.60;87.90;;;;;;4990627;28;20451;-46
2022/05/21 08:38:49;;;;;;;0.77;0.77;;;24.10;90.00;;;;;;4985041;28;20456;-45
2022/05/21 08:41:26;;;;;;;1.10;1.00;;;23.30;92.30;;;;;;5007208;28;20458;-45
2022/05/21 08:44:01;;;;;;;1.93;1.77;;;25.00;89.30;;;;;;5017513;28;20444;-45
2022/05/21 08:46:28;;;;;;;1.20;1.10;;;26.40;83.90;;;;;;5018953;28;20437;-45
2022/05/21 08:49:04;;;;;;;0.97;0.93;;;25.70;84.30;;;;;;5018253;28;20765;-44
2022/05/21 08:51:48;;;;;;;0.80;0.80;;;24.60;90.00;;;;;;5010749;28;20489;-43
2022/05/21 08:54:23;;;;;;;2.70;1.37;;;25.60;87.50;;;;;;4998075;28;20798;-46
2022/05/21 08:56:52;;;;;;;1.03;0.93;;;26.60;79.50;;;;;;4997367;28;20444;-47
2022/05/21 08:59:24;;;;;;;0.97;0.90;;;27.00;79.50;;;;;;4997702;28;20467;-44
2022/05/21 09:01:52;;;;;;;2.17;1.57;;;27.90;76.90;;;;;;4997032;28;20459;-45
2022/05/21 09:04:26;;;;;;;0.90;0.87;;;27.80;74.90;;;;;;4997795;28;20624;-43
2022/05/21 09:07:16;;;;;;;1.23;0.90;;;27.50;76.60;;;;;;4997239;28;20509;-43
2022/05/21 09:10:13;;;;;;;4.20;1.30;;;28.40;72.80;;;;;;4997625;28;20440;-47
2022/05/21 09:12:52;;;;;;;1.57;1.10;;;26.90;74.10;;;;;;4996504;28;20483;-48
2022/05/21 09:18:10;;;;;;;0.80;0.80;;;26.30;73.10;;;;;;4996893;28;20787;-44
2022/05/21 09:20:48;;;;;;;1.00;1.00;;;26.50;71.80;;;;;;4996308;28;20445;-43
2022/05/21 09:23:16;;;;;;;0.80;0.80;;;26.30;72.70;;;;;;4995894;28;20449;-45
2022/05/21 09:25:43;;;;;;;1.00;0.90;;;25.40;75.90;;;;;;5003355;28;20627;-43
2022/05/21 09:28:18;;;;;;;2.40;1.20;;;24.20;80.30;;;;;;5016089;28;20461;-45
2022/05/21 09:30:56;;;;;;;1.20;1.07;;;24.30;83.90;;;;;;5016236;28;20444;-44
2022/05/21 09:33:35;;;;;;;1.10;1.00;;;24.30;84.40;;;;;;4997814;28;20489;-46
2022/05/21 09:36:03;;;;;;;1.17;1.07;;;23.90;85.10;;;;;;5004980;28;20467;-44
2022/05/21 09:38:34;;;;;;;0.77;0.77;;;23.50;87.40;;;;;;5004442;28;20839;-43
2022/05/21 09:41:17;;;;;;;1.30;1.20;;;23.70;87.70;;;;;;5015384;28;20553;-44
2022/05/21 09:47:13;;;;;;;1.13;0.90;;;23.70;82.90;;;;;;5005552;28;20673;-44
2022/05/21 09:49:42;;;;;;;1.40;0.93;;;23.70;86.20;;;;;;4988654;28;20451;-44
2022/05/21 09:52:24;;;;;;;3.90;1.00;;;23.40;83.90;;;;;;5003699;28;20522;-43
2022/05/21 09:54:51;;;;;;;2.17;1.20;;;22.80;84.20;;;;;;4996197;28;20450;-44
2022/05/21 09:57:38;;;;;;;1.20;1.10;;;22.20;85.50;;;;;;4998930;28;20423;-42
2022/05/21 10:00:26;;;;;;;0.77;0.77;;;22.20;87.10;;;;;;5015409;28;20412;-46
2022/05/21 10:02:56;;;;;;;1.80;0.93;;;22.90;85.60;;;;;;4976863;28;20760;-45
2022/05/21 10:05:25;;;;;;;3.47;1.40;;;23.00;84.00;;;;;;4988795;28;20443;-43
2022/05/21 10:11:05;;;;;;;1.40;1.30;;;22.40;85.40;;;;;;4996040;28;20571;-41
2022/05/21 10:13:47;;;;;;;7.03;1.00;;;22.50;86.40;;;;;;4995864;28;20490;-43
2022/05/21 10:16:26;;;;;;;0.70;0.70;;;22.30;86.10;;;;;;4995655;28;20466;-44
2022/05/21 10:19:26;;;;;;;0.80;0.80;;;22.20;88.00;;;;;;4999606;28;20920;-46
2022/05/21 10:22:11;;;;;;;3.63;1.00;;;22.30;88.80;;;;;;4976052;28;20522;-43
2022/05/21 10:25:07;;;;;;;1.80;1.13;;;22.50;87.60;;;;;;4976285;28;20470;-46
2022/05/21 10:28:11;;;;;;;13.30;1.23;;;22.80;87.10;;;;;;4975716;28;20757;-45
2022/05/21 10:31:00;;;;;;;1.20;1.00;;;22.60;86.90;;;;;;4976596;28;20646;-43
2022/05/21 10:34:03;;;;;;;1.97;1.33;;;22.00;86.30;;;;;;4975862;28;20491;-43
2022/05/21 10:36:48;;;;;;;3.07;1.37;;;21.90;87.70;;;;;;4976189;28;20468;-44
2022/05/21 10:39:26;;;;;;;8.03;1.70;;;21.70;89.00;;;;;;4976046;28;20435;-48
2022/05/21 10:42:11;;;;;;;2.77;0.93;;;21.90;89.60;;;;;;4976860;28;20572;-45
2022/05/21 10:44:51;;;;;;;1.90;0.80;;;22.20;89.60;;;;;;4989030;28;20513;-46
2022/05/21 10:47:46;;;;;;;1.40;1.30;;;22.10;89.90;;;;;;4993381;28;20751;-44
2022/05/21 10:50:45;;;;;;;0.83;0.83;;;21.90;90.50;;;;;;4995175;28;20709;-44
2022/05/21 10:53:31;;;;;;;3.60;1.27;;;21.60;91.00;;;;;;4968210;28;20512;-45
2022/05/21 10:56:28;;;;;;;1.10;1.00;;;21.70;90.00;;;;;;4995639;28;20443;-45
2022/05/21 10:59:30;;;;;;;1.90;1.10;;;21.80;90.10;;;;;;4999422;28;20644;-44
2022/05/21 11:02:15;;;;;;;2.90;1.10;;;21.50;91.30;;;;;;4998848;28;20475;-43
2022/05/21 11:05:13;;;;;;;2.00;1.60;;;21.60;91.00;;;;;;5005758;28;20538;-45
2022/05/21 11:07:48;;;;;;;1.13;1.00;;;21.60;90.80;;;;;;5018718;28;20636;-44
2022/05/21 11:10:35;;;;;;;1.20;1.10;;;21.50;91.60;;;;;;5018785;28;20801;-43
2022/05/21 11:13:17;;;;;;;1.67;0.97;;;21.40;91.50;;;;;;5018633;28;20457;-45
2022/05/21 11:16:01;;;;;;;1.20;1.10;;;21.50;91.90;;;;;;5019099;28;20421;-43
2022/05/21 11:18:46;;;;;;;0.87;0.87;;;21.60;92.10;;;;;;5018992;28;20415;-43
2022/05/21 11:21:21;;;;;;;3.13;1.67;;;21.20;91.80;;;;;;5017093;28;20531;-46
2022/05/21 11:24:15;;;;;;;1.27;1.17;;;20.90;93.00;;;;;;5018353;28;20810;-45
2022/05/21 11:26:53;;;;;;;1.53;1.00;;;20.70;92.90;;;;;;5002785;28;20444;-46
2022/05/21 11:29:40;;;;;;;2.43;1.67;;;20.70;93.70;;;;;;4998896;28;20451;-49
2022/05/21 11:38:24;;;;;;;1.67;1.50;;;21.60;90.90;;;;;;4998517;28;20417;-43
2022/05/21 11:47:20;;;;;;;1.20;1.00;;;22.00;90.20;;;;;;4999067;28;20444;-44
2022/05/21 11:50:08;;;;;;;3.90;1.17;;;22.10;89.30;;;;;;4999181;28;20445;-41
2022/05/21 11:52:35;;;;;;;4.33;1.10;;;22.00;89.30;;;;;;4998547;28;20463;-41
2022/05/21 11:55:11;;;;;;;6.40;1.27;;;21.80;88.20;;;;;;4998694;28;20480;-45
2022/05/21 11:57:38;;;;;;;1.03;0.93;;;21.80;89.20;;;;;;4999293;28;20644;-44
2022/05/21 12:00:14;;;;;;;1.50;1.33;;;21.80;89.80;;;;;;4998878;28;20416;-44
2022/05/21 12:02:54;;;;;;;1.07;0.97;;;21.80;88.30;;;;;;4993883;28;20487;-43
2022/05/21 12:05:35;;;;;;;2.80;0.83;;;21.80;90.50;;;;;;5010006;28;20423;-45
2022/05/21 12:08:15;;;;;;;1.00;0.77;;;21.70;90.00;;;;;;5008592;28;20499;-42
2022/05/21 12:10:58;;;;;;;4.90;1.67;;;21.70;89.20;;;;;;5012225;28;20448;-43
2022/05/21 12:13:34;;;;;;;1.30;1.20;;;22.10;89.40;;;;;;5018346;28;20653;-44
2022/05/21 12:16:16;;;;;;;1.40;1.27;;;22.30;87.50;;;;;;5017501;28;20440;-47
2022/05/21 12:18:46;;;;;;;2.20;1.67;;;22.40;88.00;;;;;;5018075;28;20436;-44
2022/05/21 12:21:32;;;;;;;2.30;1.50;;;22.60;88.60;;;;;;5016357;28;20518;-45
2022/05/21 12:24:07;;;;;;;1.30;1.10;;;22.50;90.00;;;;;;5017292;28;20803;-42
2022/05/21 12:26:43;;;;;;;3.40;1.90;;;22.30;90.00;;;;;;5021448;28;20448;-41
2022/05/21 12:29:13;;;;;;;1.20;0.97;;;22.00;90.50;;;;;;5018987;28;20441;-48
2022/05/21 12:31:50;;;;;;;1.27;0.97;;;22.10;90.60;;;;;;5019942;28;20445;-46
2022/05/21 12:34:32;;;;;;;1.27;1.10;;;22.00;90.10;;;;;;5017632;28;20506;-44
2022/05/21 12:37:16;;;;;;;1.10;0.90;;;21.70;91.20;;;;;;5009124;28;20416;-47
2022/05/21 12:40:02;;;;;;;3.33;1.70;;;21.40;92.30;;;;;;4998268;28;20469;-44
2022/05/21 12:42:48;;;;;;;2.47;2.27;;;21.30;92.50;;;;;;4997202;28;20464;-44
2022/05/21 12:45:42;;;;;;;2.23;2.03;;;21.40;93.50;;;;;;4997272;28;20446;-44
2022/05/21 12:48:23;;;;;;;2.03;1.83;;;21.30;93.00;;;;;;4997582;28;20440;-45
2022/05/21 12:51:00;;;;;;;2.13;1.93;;;21.20;93.20;;;;;;4997566;28;20857;-43
2022/05/21 12:53:29;;;;;;;2.53;1.73;;;20.70;92.90;;;;;;4998982;28;20461;-42
2022/05/21 12:56:00;;;;;;;3.20;2.90;;;20.40;94.10;;;;;;4998702;28;20475;-42
2022/05/21 12:58:28;;;;;;;5.60;2.60;;;20.30;94.70;;;;;;5006373;28;20454;-45
2022/05/21 13:00:57;;;;;;;1.37;1.27;;;20.30;94.70;;;;;;5014721;28;20494;-42
2022/05/21 13:03:29;;;;;;;1.57;1.43;;;20.20;95.50;;;;;;5019054;28;20439;-43
2022/05/21 13:06:07;;;;;;;2.27;1.67;;;20.10;95.40;;;;;;5000709;28;20576;-42
2022/05/21 13:08:39;;;;;;;4.13;1.70;;;20.30;95.60;;;;;;4998157;28;20417;-43
2022/05/21 13:11:17;;;;;;;2.60;1.60;;;20.60;95.00;;;;;;4997071;28;20491;-43
2022/05/21 13:13:50;;;;;;;4.97;1.63;;;21.00;94.40;;;;;;4997171;28;20480;-42
2022/05/21 13:16:19;;;;;;;4.37;1.90;;;21.20;93.80;;;;;;4996742;28;20421;-43
2022/05/21 13:19:15;;;;;;;2.63;1.53;;;21.50;93.00;;;;;;4997020;28;20420;-43
2022/05/21 13:22:20;;;;;;;1.27;1.17;;;21.40;93.00;;;;;;4996922;28;20460;-45
2022/05/21 13:24:53;;;;;;;2.30;1.03;;;21.40;92.40;;;;;;4996677;28;20426;-42
2022/05/21 13:27:22;;;;;;;1.47;1.10;;;21.90;92.40;;;;;;4997061;28;20455;-43
2022/05/21 13:29:52;;;;;;;3.33;1.33;;;22.10;91.80;;;;;;4996878;28;20745;-41
2022/05/21 13:32:26;;;;;;;1.07;0.97;;;21.70;92.20;;;;;;4996034;28;20870;-44
2022/05/21 13:34:55;;;;;;;2.43;0.80;;;21.50;92.50;;;;;;4996584;28;20899;-44
2022/05/21 13:37:33;;;;;;;1.23;1.10;;;21.50;92.60;;;;;;4996845;28;20412;-46
2022/05/21 13:40:08;;;;;;;1.40;1.10;;;21.50;92.70;;;;;;4996316;28;20443;-44
2022/05/21 13:42:36;;;;;;;1.27;1.17;;;21.20;93.00;;;;;;4996553;28;20765;-44
2022/05/21 13:45:11;;;;;;;1.47;1.30;;;21.20;93.90;;;;;;4998758;28;20584;-43
2022/05/21 13:47:45;;;;;;;1.13;0.77;;;21.20;94.60;;;;;;4998296;28;20533;-44
2022/05/21 13:50:12;;;;;;;5.50;1.67;;;21.30;93.30;;;;;;4996012;28;20412;-43
2022/05/21 13:52:40;;;;;;;1.03;1.03;;;21.50;93.20;;;;;;4995896;28;20460;-42
2022/05/21 13:55:11;;;;;;;5.87;1.80;;;21.70;93.20;;;;;;4996408;28;20416;-46
2022/05/21 13:57:38;;;;;;;2.73;2.53;;;21.70;93.30;;;;;;4996363;28;20415;-45